Погода Окакарана неделю

Окаванго, Намибия

01 - 07 марта
  • 01марта
    Сегодня
    +18°
    +35°
    Ясно и безоблачно
    ВремяПогодаТемператураВлажностьДавлениеВетер, м/сВероятность осадков
    02:00Практически безоблачно+21°C73 %652 мм1.3 м/с5 %
    05:00Ясно и безоблачно+19°C82 %652 мм1.5 м/с5 %
    08:00Ясно и безоблачно+21°C66 %653 мм2.1 м/с5 %
    11:00Ясно и безоблачно+30°C27 %656 мм4.2 м/с5 %
    14:00Ясно и безоблачно+34°C20 %655 мм2.3 м/с3 %
    17:00Практически безоблачно+34°C19 %653 мм3.2 м/с4 %
    20:00Практически безоблачно+28°C27 %653 мм0.9 м/с6 %
    23:00Ясно и безоблачно+23°C45 %653 мм4.0 м/с2 %
  • 02марта
    Суббота
    +19°
    +35°
    Ясно и безоблачно
    ВремяПогодаТемператураВлажностьДавлениеВетер, м/сВероятность осадков
    02:00Ясно и безоблачно+22°C55 %653 мм3.0 м/с5 %
    05:00Ясно и безоблачно+20°C65 %652 мм1.9 м/с5 %
    08:00Ясно и безоблачно+22°C58 %654 мм1.2 м/с5 %
    11:00Ясно и безоблачно+30°C19 %656 мм4.4 м/с5 %
    14:00Ясно и безоблачно+34°C13 %654 мм3.4 м/с5 %
    17:00Ясно и безоблачно+35°C13 %653 мм2.5 м/с5 %
    20:00Ясно и безоблачно+29°C18 %652 мм1.5 м/с5 %
    23:00Практически безоблачно+24°C28 %652 мм1.0 м/с5 %
  • 03марта
    Воскресенье
    +20°
    +36°
    Облачно с прояснениями
    ВремяПогодаТемператураВлажностьДавлениеВетер, м/сВероятность осадков
    02:00Небольшая облачность+22°C34 %651 мм1.8 м/с3 %
    05:00Небольшая облачность+20°C39 %651 мм1.5 м/с5 %
    08:00Ясно и безоблачно+22°C37 %654 мм1.3 м/с5 %
    11:00Ясно и безоблачно+31°C18 %655 мм2.1 м/с5 %
    14:00Облачно с прояснениями+36°C12 %654 мм1.6 м/с5 %
    17:00Облачно с прояснениями+35°C13 %653 мм2.8 м/с3 %
    20:00Практически безоблачно+30°C19 %652 мм3.7 м/с5 %
    23:00Практически безоблачно+25°C27 %651 мм2.3 м/с5 %
  • 04марта
    Понедельник
    +18°
    +37°
    Пасмурно, сплошная облачность
    ВремяПогодаТемператураВлажностьДавлениеВетер, м/сВероятность осадков
    02:00Ясно и безоблачно+24°C30 %651 мм4.4 м/с5 %
    05:00Ясно и безоблачно+21°C42 %650 мм3.6 м/с5 %
    08:00Ясно и безоблачно+23°C38 %652 мм3.2 м/с5 %
    11:00Ясно и безоблачно+32°C19 %653 мм3.6 м/с5 %
    14:00Пасмурно, сплошная облачность+37°C12 %652 мм1.0 м/с5 %
    17:00Облачно с прояснениями+36°C12 %651 мм3.1 м/с5 %
    20:00Ясно и безоблачно+30°C18 %650 мм3.8 м/с5 %
    23:00Ясно и безоблачно+27°C24 %651 мм6.7 м/с5 %
  • 05марта
    Вторник
    +17°
    +38°
    Ясно и безоблачно
    ВремяПогодаТемператураВлажностьДавлениеВетер, м/сВероятность осадков
    02:00Ясно и безоблачно+23°C31 %650 мм5.0 м/с5 %
    05:00Практически безоблачно+19°C35 %650 мм2.0 м/с5 %
    08:00Практически безоблачно+22°C29 %652 мм2.5 м/с5 %
    11:00Ясно и безоблачно+30°C15 %654 мм2.5 м/с5 %
    14:00Ясно и безоблачно+35°C11 %652 мм0.8 м/с5 %
    17:00Облачно с прояснениями+37°C12 %651 мм4.1 м/с5 %
    20:00Практически безоблачно+31°C15 %650 мм4.4 м/с5 %
    23:00Ясно и безоблачно+26°C17 %651 мм5.8 м/с5 %
Мы используем cookies
Соглашаюсь